NCAR-RAP Real-Time Weather Data

Output produced by METARs form (12 August 2020  18:09 UTC)
found at http://weather.rap.ucar.edu/surface/
 
KROA 121754Z 14007KT 10SM FEW030 FEW080 BKN100 28/22 A3008 RMK AO2 LTG DSNT SW AND W SLP171 60001 T02830222 10289 20250 58005
KROA 121729Z 12007KT 10SM SCT027 SCT035 BKN110 29/23 A3008 RMK AO2 LTG DSNT S AND SW T02890228
KROA 121714Z 10003KT 10SM VCTS SCT031 BKN110 28/22 A3009 RMK AO2 LTG DSNT S AND SW T02830217
KROA 121654Z 10004KT 10SM SCT031 BKN110 28/22 A3009 RMK AO2 LTG DSNT S AND SW RAE13 SLP176 P0001 T02780217
KROA 121554Z 11012KT 10SM -RA FEW023 BKN038 OVC050 28/23 A3010 RMK AO2 RAB53 SLP178 P0000 T02780228
KROA 121549Z 13007KT 10SM FEW023 BKN031 OVC048 28/22 A3010 RMK AO2
KROA 121454Z 00000KT 10SM BKN025 28/22 A3010 RMK AO2 SLP179 T02830222 53003
KROA 121433Z 12004KT 10SM BKN023 28/22 A3010 RMK AO2 T02780217
KROA 121354Z VRB06KT 10SM FEW022 28/21 A3010 RMK AO2 SLP177 T02780211
KROA 121254Z 04007KT 10SM SCT120 27/21 A3010 RMK AO2 SLP177 T02720211
KROA 121154Z VRB03KT 10SM SCT170 25/21 A3010 RMK AO2 SLP177 T02500211 10250 20233 51016
KROA 121054Z 36005KT 10SM BKN180 24/21 A3008 RMK AO2 SLP171 T02390211
KROA 120954Z 32004KT 10SM SCT080 SCT170 23/22 A3007 RMK AO2 SLP167 T02330217
KROA 120854Z 36005KT 10SM FEW070 SCT170 24/22 A3005 RMK AO2 SLP160 T02390217 53001
KROA 120754Z 03005KT 10SM SCT160 24/22 A3004 RMK AO2 SLP159 T02390217
KROA 120654Z 00000KT 10SM SCT150 24/22 A3004 RMK AO2 SLP156 T02440217
KROA 120554Z 36004KT 10SM FEW095 24/22 A3005 RMK AO2 SLP159 T02440217 10289 20239 50002
KROA 120454Z 00000KT 10SM CLR 24/21 A3005 RMK AO2 SLP161 T02440211 403280211
KROA 120354Z 00000KT 10SM SCT080 25/22 A3004 RMK AO2 SLP158 T02500222
KROA 120254Z 25003KT 10SM SCT150 27/21 A3004 RMK AO2 SLP158 T02670211 51014
KROA 120154Z 27005KT 10SM SCT120 27/22 A3003 RMK AO2 SLP155 T02670217
KROA 120054Z 28004KT 10SM BKN050 BKN120 28/22 A3001 RMK AO2 SLP148 T02830217
KROA 112354Z 13003KT 10SM FEW065 SCT120 29/22 A3000 RMK AO2 LTG DSNT N AND NE SLP143 T02890222 10328 20283 53004
KROA 112254Z 13006KT 10SM SCT065 BKN110 30/22 A2998 RMK AO2 LTG DSNT SW SLP138 T03000217
KROA 112154Z 12007KT 10SM FEW065 SCT080 31/21 A2998 RMK AO2 LTG DSNT NW SLP138 T03060211
KROA 112054Z 12006KT 10SM FEW055 SCT075 BKN110 31/21 A2999 RMK AO2 TSB15E30 SLP139 T03060206 56009
KROA 112036Z 12006KT 10SM FEW045 SCT055 BKN070 29/21 A2999 RMK AO2 TSB15E30 T02890211
KROA 112021Z 14010G19KT 10SM TS BKN045CB BKN060 30/22 A2999 RMK AO2 LTG DSNT W TSB15 OCNL LTGIC OHD TS OHD MOV E T03000222
KROA 111954Z 17004KT 10SM SCT045 BKN095 32/21 A2999 RMK AO2 SLP139 T03170211
KROA 111854Z COR 00000KT 10SM SCT048 BKN060 31/21 A3000 RMK AO2 SLP144 T03110206
KROA 111754Z VRB03KT 10SM SCT046 32/21 A3001 RMK AO2 SLP149 T03170206 10322 20239 58013
KROA 111654Z 00000KT 10SM FEW043 31/19 A3003 RMK AO2 SLP154 T03060194
KROA 111554Z VRB04KT 10SM FEW035 30/21 A3005 RMK AO2 SLP160 T03000206
KROA 111454Z VRB04KT 10SM FEW035 29/21 A3005 RMK AO2 SLP162 T02890206 51007
KROA 111354Z VRB03KT 10SM CLR 27/21 A3005 RMK AO2 SLP161 T02720206
KROA 111254Z 24003KT 10SM CLR 26/20 A3004 RMK AO2 SLP159 T02560200
KROA 111154Z 00000KT 10SM CLR 24/21 A3003 RMK AO2 SLP156 T02390206 10239 20211 53006
KROA 111054Z 00000KT 10SM FEW080 21/20 A3003 RMK AO2 SLP154 T02110200
KROA 110954Z 01003KT 10SM CLR 22/21 A3001 RMK AO2 SLP148 T02170206
KROA 110854Z 20004KT 10SM FEW120 23/20 A3001 RMK AO2 SLP149 T02280200 56010
KROA 110754Z 25005KT 10SM SCT120 22/20 A3002 RMK AO2 SLP151 T02170200
KROA 110654Z 00000KT 10SM OVC110 22/21 A3002 RMK AO2 SLP154 T02220206
KROA 110554Z 00000KT 10SM CLR 23/21 A3005 RMK AO2 SLP160 T02280206 10283 20228 50001
KROA 110454Z 00000KT 10SM CLR 23/21 A3006 RMK AO2 SLP164 T02330206 403220189
KROA 110354Z 00000KT 10SM CLR 24/21 A3005 RMK AO2 SLP162 T02440206
KROA 110254Z 00000KT 10SM CLR 24/21 A3004 RMK AO2 SLP158 T02440206 53005
KROA 110154Z 00000KT 10SM CLR 26/21 A3003 RMK AO2 SLP155 T02610211
KROA 110054Z 11005KT 10SM FEW100 27/21 A3003 RMK AO2 SLP155 T02720206
KROA 102354Z 17005KT 10SM FEW100 28/20 A3003 RMK AO2 SLP155 T02830200 10311 20267 55006
KROA 102254Z 15007KT 10SM FEW100 30/19 A3002 RMK AO2 SLP152 T03000194
KROA 102154Z 17007KT 10SM FEW050 31/19 A3003 RMK AO2 SLP155 T03110189
KROA 102054Z 14004KT 10SM FEW055 FEW100 30/19 A3004 RMK AO2 SLP160 T03000194 58023
KROA 101954Z 00000KT 10SM FEW055 BKN100 29/19 A3007 RMK AO2 SLP170 T02890194
KROA 101854Z 20004KT 10SM OVC095 27/19 A3010 RMK AO2 SLP179 T02720189